Time;durP1;ratioP1;P1;durP2;ratioP2;P2;SDS_P1;SDS_P2;PMS_P1;PMS_P2;Temp;Humidity;BMP_temperature;BMP_pressure;BME280_temperature;BME280_humidity;BME280_pressure;Samples;Min_cycle;Max_cycle;Signal;HPM_P1;HPM_P2
2022/07/19 04:25:04;;;;;;;3.65;2.25;;;;;;;15.89;72.55;101027.75;5560729;32;156796;-87
2022/07/19 04:28:08;;;;;;;3.15;2.42;;;;;;;15.93;72.50;101033.84;5543595;32;34546;-87
2022/07/19 04:31:10;;;;;;;3.12;2.60;;;;;;;16.02;72.24;101035.94;5544182;32;34294;-87
2022/07/19 04:34:13;;;;;;;6.65;2.62;;;;;;;16.13;72.39;101038.78;5544851;32;34327;-85
2022/07/19 04:37:16;;;;;;;3.67;2.50;;;;;;;16.25;71.81;101044.34;5549204;32;33563;-85
2022/07/19 04:40:18;;;;;;;4.18;2.70;;;;;;;16.40;70.87;101038.00;5557928;32;33776;-85
2022/07/19 04:43:24;;;;;;;5.95;2.40;;;;;;;16.62;69.89;101033.94;5547652;32;33972;-86
2022/07/19 04:46:27;;;;;;;3.20;2.50;;;;;;;16.74;68.40;101034.94;5543002;32;35091;-85
2022/07/19 04:49:30;;;;;;;6.15;2.62;;;;;;;16.89;67.82;101029.56;5543014;32;34492;-86
2022/07/19 04:52:33;;;;;;;4.30;2.28;;;;;;;17.01;67.45;101034.09;5543154;32;34109;-86
2022/07/19 04:55:38;;;;;;;2.75;2.53;;;;;;;17.20;67.58;101027.53;5541680;32;34025;-86
2022/07/19 04:58:41;;;;;;;3.85;2.40;;;;;;;17.31;66.01;101026.81;5531146;32;33732;-86
2022/07/19 05:01:44;;;;;;;8.18;2.42;;;;;;;17.50;65.79;101026.41;5523435;32;34168;-86
2022/07/19 05:04:54;;;;;;;5.10;2.50;;;;;;;17.75;63.97;101033.59;5527949;32;34502;-86
2022/07/19 05:07:57;;;;;;;5.90;2.28;;;;;;;17.89;61.86;101024.59;5531942;32;33882;-86
2022/07/19 05:10:59;;;;;;;4.15;2.17;;;;;;;18.03;58.84;101029.00;5527607;32;34095;-86
2022/07/19 05:14:02;;;;;;;7.07;2.10;;;;;;;18.21;57.13;101035.88;5533211;32;34071;-86
2022/07/19 05:17:05;;;;;;;4.90;1.83;;;;;;;18.43;56.45;101040.53;5540628;32;33383;-86
2022/07/19 05:20:08;;;;;;;8.85;2.10;;;;;;;18.66;55.79;101036.16;5533669;32;33577;-86
2022/07/19 05:23:11;;;;;;;3.05;1.85;;;;;;;18.88;55.58;101034.59;5542087;32;33814;-87
2022/07/19 05:26:14;;;;;;;3.00;2.08;;;;;;;19.08;53.69;101037.63;5542666;32;34209;-87
2022/07/19 05:29:17;;;;;;;3.65;1.95;;;;;;;19.21;52.61;101033.03;5541177;32;33775;-87
2022/07/19 05:32:19;;;;;;;4.55;2.20;;;;;;;19.96;49.77;101039.97;5544082;32;33815;-86
2022/07/19 05:35:22;;;;;;;2.22;1.87;;;;;;;21.76;44.17;101027.91;5535110;32;33507;-87
2022/07/19 05:38:28;;;;;;;3.40;1.80;;;;;;;25.00;37.51;101021.41;5530463;32;34179;-87
2022/07/19 05:41:31;;;;;;;4.25;1.87;;;;;;;27.61;31.52;101030.25;5531322;32;32408;-87
2022/07/19 05:44:34;;;;;;;3.30;1.75;;;;;;;28.82;30.57;101029.22;5529845;32;33827;-89
2022/07/19 05:47:37;;;;;;;7.12;2.05;;;;;;;29.88;28.62;101023.00;5527990;32;32444;-91
2022/07/19 05:50:39;;;;;;;4.20;1.85;;;;;;;29.32;28.33;101022.34;5514124;32;34812;-85
2022/07/19 05:53:43;;;;;;;1.90;1.80;;;;;;;30.96;26.19;101023.47;5511397;32;33878;-86
2022/07/19 05:56:45;;;;;;;3.10;2.00;;;;;;;31.00;26.93;101022.00;5511392;32;34390;-85
2022/07/19 05:59:48;;;;;;;4.07;1.73;;;;;;;30.92;27.07;101014.78;5510633;32;33773;-87
2022/07/19 06:02:51;;;;;;;4.78;1.80;;;;;;;30.37;27.95;101020.72;5510542;32;34403;-85
2022/07/19 06:05:53;;;;;;;2.72;1.85;;;;;;;32.14;25.74;101013.75;5518046;32;33120;-86
2022/07/19 06:08:57;;;;;;;4.20;1.70;;;;;;;33.90;23.76;101017.50;5528859;32;33926;-86
2022/07/19 06:12:00;;;;;;;4.43;1.75;;;;;;;34.89;22.15;101018.28;5529494;32;34175;-86
2022/07/19 06:15:04;;;;;;;2.70;1.62;;;;;;;34.54;22.27;101030.56;5523730;32;33510;-86
2022/07/19 06:18:10;;;;;;;6.25;1.55;;;;;;;35.52;21.61;101024.75;5516583;32;34360;-86
2022/07/19 06:21:15;;;;;;;2.65;1.75;;;;;;;34.15;23.11;101022.28;5510235;32;33986;-85
2022/07/19 06:24:18;;;;;;;6.55;1.98;;;;;;;32.67;24.30;101024.06;5510067;32;33023;-87
2022/07/19 06:27:20;;;;;;;8.45;2.08;;;;;;;33.35;23.67;101021.38;5514869;32;34085;-86
2022/07/19 06:30:23;;;;;;;3.60;1.83;;;;;;;34.66;22.21;101026.06;5513663;32;32973;-86
2022/07/19 06:33:26;;;;;;;5.62;2.03;;;;;;;34.05;22.67;101022.75;5525545;32;34088;-87
2022/07/19 06:36:28;;;;;;;5.95;2.10;;;;;;;35.12;21.86;101023.22;5523985;32;34960;-87
2022/07/19 06:39:31;;;;;;;7.95;2.10;;;;;;;35.28;21.25;101021.78;5517142;32;33669;-88
2022/07/19 06:42:34;;;;;;;5.12;2.37;;;;;;;34.11;22.88;101024.66;5516359;32;33828;-87
2022/07/19 06:45:37;;;;;;;11.43;2.35;;;;;;;32.56;24.61;101026.56;5522981;32;32451;-86
2022/07/19 06:48:40;;;;;;;5.28;2.17;;;;;;;31.30;26.45;101019.13;5527813;32;32368;-87
2022/07/19 06:51:43;;;;;;;5.80;2.10;;;;;;;29.95;27.96;101014.88;5513668;32;34933;-86
2022/07/19 06:54:46;;;;;;;6.20;2.40;;;;;;;30.04;28.34;101015.63;5510619;32;34282;-87
2022/07/19 06:57:48;;;;;;;7.93;2.22;;;;;;;29.87;28.94;101004.91;5524273;32;35152;-85
2022/07/19 07:00:51;;;;;;;4.20;2.05;;;;;;;29.55;29.28;101009.69;5515780;32;32879;-86
2022/07/19 07:03:54;;;;;;;7.93;2.17;;;;;;;29.32;29.47;101013.31;5535057;32;34729;-86
2022/07/19 07:06:57;;;;;;;6.62;2.60;;;;;;;29.11;30.22;101009.38;5536027;32;33960;-86
2022/07/19 07:10:01;;;;;;;5.82;2.20;;;;;;;29.84;28.31;101016.22;5529370;32;33889;-86
2022/07/19 07:13:11;;;;;;;4.30;2.00;;;;;;;29.25;28.39;101005.00;5529855;32;34960;-85
2022/07/19 07:16:14;;;;;;;6.60;2.33;;;;;;;28.98;29.32;100998.25;5529304;32;34646;-85
2022/07/19 07:19:17;;;;;;;5.20;2.50;;;;;;;30.09;26.84;101005.00;5528453;32;34522;-86
2022/07/19 07:22:19;;;;;;;6.80;2.62;;;;;;;30.12;27.22;101005.47;5522656;32;33966;-87
2022/07/19 07:25:22;;;;;;;4.05;2.50;;;;;;;30.42;27.33;100999.06;5545865;32;33442;-87
2022/07/19 07:28:24;;;;;;;4.37;2.53;;;;;;;30.69;27.31;100996.66;5535958;32;33705;-87
2022/07/19 07:31:28;;;;;;;12.37;2.37;;;;;;;30.89;26.44;100985.91;5520929;32;34347;-86
2022/07/19 07:34:31;;;;;;;8.40;2.20;;;;;;;30.44;26.18;100993.41;5521417;32;34228;-86
2022/07/19 07:37:38;;;;;;;5.60;2.47;;;;;;;30.71;26.28;100993.72;5528879;32;33801;-87
2022/07/19 07:40:41;;;;;;;7.68;2.40;;;;;;;30.03;26.12;100989.31;5518501;32;34120;-86
2022/07/19 07:43:44;;;;;;;6.25;2.25;;;;;;;30.42;25.14;100992.75;5525498;32;33973;-85
2022/07/19 07:46:47;;;;;;;4.62;2.15;;;;;;;30.55;24.77;100983.81;5529371;32;34469;-86
2022/07/19 07:49:50;;;;;;;9.68;2.37;;;;;;;30.51;25.21;100988.84;5529994;32;34433;-86
2022/07/19 07:52:52;;;;;;;5.40;2.42;;;;;;;31.19;25.19;100976.66;5529663;32;33680;-86
2022/07/19 07:55:55;;;;;;;7.12;2.08;;;;;;;30.58;23.60;100987.03;5525613;32;34222;-86
2022/07/19 07:59:04;;;;;;;4.25;2.30;;;;;;;30.83;24.24;100983.09;5534990;32;34205;-89
2022/07/19 08:02:07;;;;;;;5.85;2.28;;;;;;;31.17;24.30;100984.22;5516840;32;34327;-92
2022/07/19 08:05:11;;;;;;;5.75;2.25;;;;;;;31.94;24.24;100980.72;5512512;32;34322;-91
2022/07/19 08:08:14;;;;;;;5.82;2.50;;;;;;;32.58;22.77;100978.63;5511952;32;33641;-92
2022/07/19 08:11:17;;;;;;;6.40;2.35;;;;;;;32.75;22.79;100981.84;5554143;32;33931;-88
2022/07/19 08:14:20;;;;;;;11.15;2.42;;;;;;;33.37;22.63;100977.19;5553776;32;34768;-88
2022/07/19 08:17:23;;;;;;;7.03;2.37;;;;;;;33.64;21.21;100977.16;5544082;32;35076;-88
2022/07/19 08:20:25;;;;;;;12.13;2.37;;;;;;;33.54;21.20;100983.09;5540874;32;34214;-88
2022/07/19 08:23:28;;;;;;;7.70;2.37;;;;;;;33.03;20.99;100980.81;5528482;32;34139;-88
2022/07/19 08:26:31;;;;;;;4.97;2.45;;;;;;;33.53;21.47;100976.75;5529987;32;34655;-87
2022/07/19 08:29:34;;;;;;;12.43;2.00;;;;;;;34.39;20.82;100982.13;5529549;32;34821;-88
2022/07/19 08:32:37;;;;;;;8.40;2.40;;;;;;;34.22;19.04;100987.31;5529308;32;32864;-88
2022/07/19 08:35:40;;;;;;;5.60;2.30;;;;;;;34.36;18.83;100971.56;5536660;32;34112;-87
2022/07/19 08:38:43;;;;;;;4.03;2.05;;;;;;;34.91;19.70;100977.56;5530309;32;34487;-87
2022/07/19 08:41:46;;;;;;;6.93;2.10;;;;;;;34.70;18.10;100967.78;5519854;32;34549;-87
2022/07/19 08:44:52;;;;;;;7.03;2.20;;;;;;;35.81;18.89;100969.06;5523023;32;34385;-87
2022/07/19 08:47:57;;;;;;;8.75;2.00;;;;;;;35.45;18.18;100969.66;5530319;32;33960;-87
2022/07/19 08:51:01;;;;;;;4.47;1.67;;;;;;;35.77;18.12;100960.41;5517692;32;34616;-87
2022/07/19 08:54:04;;;;;;;4.32;1.67;;;;;;;35.81;17.04;100947.84;5513313;32;34101;-88
2022/07/19 09:00:31;;;;;;;5.32;1.50;;;;;;;35.01;16.82;100960.50;5509546;32;34136;-89
2022/07/19 09:03:34;;;;;;;7.95;1.77;;;;;;;36.05;16.41;100956.25;5508173;32;33643;-89
2022/07/19 09:06:43;;;;;;;1.52;1.10;;;;;;;36.46;16.11;100959.28;5508764;32;34312;-89
2022/07/19 09:09:45;;;;;;;2.85;0.90;;;;;;;36.07;16.22;100953.22;5524133;32;33925;-88
2022/07/19 09:13:10;;;;;;;1.98;1.30;;;;;;;35.16;16.90;100954.69;5525706;32;33472;-88
2022/07/19 09:16:12;;;;;;;1.87;1.05;;;;;;;36.58;15.63;100958.47;5529767;32;34165;-87
2022/07/19 09:19:16;;;;;;;4.03;1.20;;;;;;;37.15;15.50;100948.84;5524713;32;34947;-88
2022/07/19 09:22:19;;;;;;;3.17;1.23;;;;;;;37.88;15.15;100943.81;5521507;32;34525;-88
2022/07/19 09:25:37;;;;;;;9.18;1.30;;;;;;;38.30;15.06;100950.13;5518384;32;33959;-88
2022/07/19 09:28:40;;;;;;;3.80;1.52;;;;;;;38.10;14.77;100943.13;5529652;32;33941;-88
2022/07/19 09:32:06;;;;;;;4.18;1.95;;;;;;;38.50;15.00;100941.34;5519083;32;34922;-90
2022/07/19 09:35:09;;;;;;;2.42;1.60;;;;;;;37.81;15.14;100934.78;5513853;32;33954;-89
2022/07/19 09:38:18;;;;;;;4.70;1.90;;;;;;;37.78;15.21;100940.81;5513164;32;34227;-88
2022/07/19 09:41:20;;;;;;;2.33;1.30;;;;;;;37.95;15.95;100937.28;5509228;32;32949;-87
2022/07/19 09:44:23;;;;;;;3.92;1.50;;;;;;;37.28;15.25;100936.69;5513512;32;34278;-88
2022/07/19 09:47:36;;;;;;;1.95;1.45;;;;;;;37.68;15.41;100933.16;5510761;32;32505;-88
2022/07/19 09:50:41;;;;;;;2.42;1.40;;;;;;;38.81;14.52;100941.06;5508679;32;32546;-87
2022/07/19 09:53:43;;;;;;;1.62;1.27;;;;;;;40.43;14.18;100928.13;5510708;32;33816;-88
2022/07/19 09:56:49;;;;;;;2.45;1.30;;;;;;;41.45;12.69;100926.31;5514054;32;34696;-87
2022/07/19 09:59:54;;;;;;;2.05;1.15;;;;;;;38.48;14.69;100931.59;5537205;32;32260;-87
2022/07/19 10:02:58;;;;;;;1.25;1.17;;;;;;;38.13;15.29;100928.78;5540025;32;34154;-86
2022/07/19 10:06:02;;;;;;;1.40;1.08;;;;;;;38.59;14.67;100916.03;5530173;32;34085;-86
2022/07/19 10:09:10;;;;;;;5.05;2.25;;;;;;;37.94;15.56;100922.59;5532235;32;34343;-87
2022/07/19 10:12:13;;;;;;;4.30;1.55;;;;;;;37.74;15.13;100921.09;5527721;32;34152;-87
2022/07/19 10:15:17;;;;;;;2.08;1.30;;;;;;;38.25;15.09;100914.87;5522262;32;33945;-87
2022/07/19 10:18:29;;;;;;;1.77;1.52;;;;;;;38.68;15.00;100915.34;5524369;32;34974;-86
2022/07/19 10:21:32;;;;;;;2.65;1.35;;;;;;;39.10;14.67;100907.66;5519047;32;34048;-86
2022/07/19 10:24:52;;;;;;;2.85;1.67;;;;;;;37.81;15.12;100912.63;5518823;32;34522;-86
2022/07/19 10:27:54;;;;;;;4.55;1.23;;;;;;;37.51;14.92;100915.59;5510274;32;33384;-86
2022/07/19 10:31:25;;;;;;;3.58;1.33;;;;;;;38.17;14.75;100904.22;5514944;32;35090;-86
2022/07/19 10:34:28;;;;;;;4.00;1.42;;;;;;;39.47;14.37;100906.25;5516147;32;34328;-86
2022/07/19 10:37:41;;;;;;;4.80;1.65;;;;;;;41.03;12.77;100903.00;5529049;32;35262;-90
2022/07/19 10:40:47;;;;;;;2.37;0.93;;;;;;;42.58;12.07;100906.50;5521717;32;34245;-86
2022/07/19 10:44:12;;;;;;;1.70;1.23;;;;;;;41.39;12.62;100896.78;5518458;32;34353;-86
2022/07/19 10:47:14;;;;;;;1.55;1.45;;;;;;;40.66;13.18;100899.09;5510434;32;33543;-86
2022/07/19 10:50:21;;;;;;;3.42;1.50;;;;;;;39.98;13.87;100896.84;5514070;32;33313;-86
2022/07/19 10:53:42;;;;;;;9.05;1.45;;;;;;;38.19;15.04;100896.47;5515581;32;33448;-86
2022/07/19 10:56:58;;;;;;;2.80;1.40;;;;;;;37.75;16.30;100886.78;5519296;32;34225;-86
2022/07/19 11:00:00;;;;;;;1.40;1.30;;;;;;;37.05;15.98;100885.84;5533109;32;34916;-86
2022/07/19 11:03:28;;;;;;;2.58;1.40;;;;;;;38.04;15.35;100887.87;5524130;32;35176;-86
2022/07/19 11:06:30;;;;;;;1.27;1.17;;;;;;;38.52;15.39;100875.41;5521119;32;34270;-86
2022/07/19 11:09:44;;;;;;;5.65;1.67;;;;;;;36.94;16.83;100876.44;5523268;32;34806;-86
2022/07/19 11:12:47;;;;;;;4.05;1.58;;;;;;;37.10;16.45;100869.38;5523541;32;36645;-86
2022/07/19 11:15:57;;;;;;;2.85;1.58;;;;;;;37.95;15.52;100870.84;5523840;32;34178;-86
2022/07/19 11:19:04;;;;;;;2.85;1.23;;;;;;;39.05;14.73;100865.97;5527892;32;33719;-85
2022/07/19 11:22:11;;;;;;;4.10;1.30;;;;;;;38.77;14.78;100865.03;5518265;32;32319;-86
2022/07/19 11:25:22;;;;;;;2.67;1.40;;;;;;;37.58;16.36;100861.00;5517025;32;34135;-85
2022/07/19 11:28:25;;;;;;;2.20;1.35;;;;;;;38.31;15.44;100859.56;5519117;32;34424;-89
2022/07/19 11:31:27;;;;;;;2.60;1.48;;;;;;;37.86;15.39;100854.59;5545471;32;34024;-90
2022/07/19 11:34:30;;;;;;;4.05;1.60;;;;;;;36.60;16.60;100856.84;5526508;32;32549;-87
2022/07/19 11:37:35;;;;;;;2.10;1.60;;;;;;;36.62;17.09;100846.44;5547260;32;34289;-85
2022/07/19 11:40:41;;;;;;;2.83;1.62;;;;;;;37.35;16.22;100844.19;5543659;32;34506;-85
2022/07/19 11:43:51;;;;;;;1.70;1.60;;;;;;;36.83;16.70;100841.41;5541788;32;35140;-85
2022/07/19 11:46:56;;;;;;;3.28;1.55;;;;;;;36.85;17.14;100834.53;5548855;32;33316;-85
2022/07/19 11:50:06;;;;;;;5.75;1.75;;;;;;;37.22;16.18;100823.22;5553471;32;35090;-85
2022/07/19 11:53:09;;;;;;;3.53;1.30;;;;;;;36.90;16.44;100823.59;5532026;32;32709;-85
2022/07/19 11:56:18;;;;;;;3.67;1.45;;;;;;;36.75;17.22;100821.31;5523312;32;33817;-85
2022/07/19 11:59:21;;;;;;;2.30;1.62;;;;;;;36.65;16.50;100816.41;5544338;32;34013;-85
2022/07/19 12:02:24;;;;;;;3.83;1.60;;;;;;;36.23;17.60;100820.06;5541686;32;34473;-85
2022/07/19 12:05:27;;;;;;;2.12;1.50;;;;;;;36.23;16.92;100809.03;5531729;32;35431;-85
2022/07/19 12:08:36;;;;;;;2.30;1.30;;;;;;;35.81;17.26;100820.06;5534863;32;33757;-84
2022/07/19 12:11:52;;;;;;;2.62;1.30;;;;;;;35.80;17.23;100819.22;5521190;32;33564;-84
2022/07/19 12:15:07;;;;;;;4.07;1.75;;;;;;;35.34;17.55;100814.09;5534251;32;33508;-85
2022/07/19 12:18:10;;;;;;;3.92;1.90;;;;;;;35.10;18.12;100809.50;5525554;32;33046;-85
2022/07/19 12:21:27;;;;;;;1.60;1.50;;;;;;;35.38;17.89;100811.69;5530165;32;33680;-85
2022/07/19 12:24:30;;;;;;;2.47;1.70;;;;;;;35.29;17.73;100808.41;5529170;32;34401;-85
2022/07/19 12:27:33;;;;;;;2.17;1.98;;;;;;;35.41;17.54;100805.72;5519809;32;33607;-86
2022/07/19 12:30:37;;;;;;;2.00;1.67;;;;;;;34.73;18.03;100794.62;5541564;32;34030;-85
2022/07/19 12:33:40;;;;;;;2.15;1.37;;;;;;;34.51;18.46;100794.16;5533497;32;32353;-85
2022/07/19 12:36:43;;;;;;;2.00;1.60;;;;;;;34.57;18.44;100795.22;5548844;32;34092;-84
2022/07/19 12:40:18;;;;;;;4.20;1.90;;;;;;;34.76;18.47;100798.81;5534442;32;34346;-84
2022/07/19 12:43:21;;;;;;;1.92;1.40;;;;;;;34.05;18.72;100794.34;5515660;32;34194;-85
2022/07/19 12:46:23;;;;;;;3.20;1.50;;;;;;;34.31;18.81;100797.94;5536372;32;33850;-85
2022/07/19 12:49:44;;;;;;;1.62;1.42;;;;;;;34.23;18.49;100782.56;5532385;32;35215;-86
2022/07/19 12:52:47;;;;;;;1.67;1.50;;;;;;;33.92;19.05;100791.69;5517104;32;32417;-84
2022/07/19 12:55:50;;;;;;;3.17;1.33;;;;;;;33.59;19.29;100786.13;5520923;32;34026;-85
2022/07/19 13:02:15;;;;;;;3.55;1.60;;;;;;;33.58;19.93;100775.38;5541366;32;34729;-85
2022/07/19 13:05:19;;;;;;;2.83;1.50;;;;;;;33.56;19.13;100775.59;5541176;32;33912;-85
2022/07/19 13:08:22;;;;;;;3.70;1.70;;;;;;;33.46;19.97;100773.28;5538161;32;32718;-87
2022/07/19 13:11:26;;;;;;;1.90;1.50;;;;;;;33.25;19.55;100768.09;5545539;32;33970;-86
2022/07/19 13:14:29;;;;;;;5.35;2.03;;;;;;;33.31;19.93;100758.97;5530037;32;33688;-86
2022/07/19 13:17:32;;;;;;;3.03;1.65;;;;;;;32.52;20.55;100765.31;5531939;32;33926;-86
2022/07/19 13:20:35;;;;;;;4.37;1.65;;;;;;;32.76;20.25;100757.47;5520192;32;32249;-86
2022/07/19 13:23:38;;;;;;;3.97;1.70;;;;;;;33.25;20.07;100755.22;5534367;32;33912;-86
2022/07/19 13:26:41;;;;;;;1.80;1.67;;;;;;;33.37;20.78;100749.84;5537801;32;34525;-86
2022/07/19 13:29:50;;;;;;;6.95;1.75;;;;;;;33.82;19.81;100735.22;5546416;32;34446;-86
2022/07/19 13:32:53;;;;;;;4.90;1.90;;;;;;;33.45;19.48;100748.75;5537386;32;34443;-87
2022/07/19 13:35:57;;;;;;;3.50;1.60;;;;;;;33.48;20.18;100742.81;5521243;32;33877;-86
2022/07/19 13:39:05;;;;;;;2.62;1.70;;;;;;;33.37;19.75;100741.59;5535594;32;32220;-87
2022/07/19 13:42:08;;;;;;;4.57;1.95;;;;;;;33.70;19.49;100737.00;5524137;32;32366;-86
2022/07/19 13:45:11;;;;;;;4.47;1.67;;;;;;;33.56;20.06;100739.84;5530489;32;33724;-86
2022/07/19 13:48:13;;;;;;;6.57;2.10;;;;;;;33.65;19.57;100734.94;5516479;32;33380;-86
2022/07/19 13:51:17;;;;;;;2.55;1.92;;;;;;;32.87;19.81;100734.00;5530741;32;33752;-86
2022/07/19 13:54:19;;;;;;;3.08;1.95;;;;;;;32.83;20.47;100727.25;5530392;32;33874;-86
2022/07/19 13:57:22;;;;;;;2.58;1.95;;;;;;;32.90;20.56;100725.31;5530070;32;34595;-86
2022/07/19 14:00:25;;;;;;;2.08;1.67;;;;;;;33.04;19.85;100724.22;5537197;32;34292;-87
2022/07/19 14:03:28;;;;;;;5.40;1.70;;;;;;;32.93;20.16;100716.66;5532078;32;33890;-87
2022/07/19 14:06:31;;;;;;;1.92;1.80;;;;;;;33.09;20.14;100706.25;5554204;32;33996;-87
2022/07/19 14:09:36;;;;;;;3.67;2.08;;;;;;;32.93;20.19;100717.47;5535498;32;33275;-87
2022/07/19 14:12:45;;;;;;;2.17;1.40;;;;;;;32.94;20.14;100710.09;5548854;32;34129;-90
2022/07/19 14:16:01;;;;;;;3.15;1.95;;;;;;;33.05;20.29;100711.34;5550444;32;35120;-87
2022/07/19 14:19:03;;;;;;;3.60;1.80;;;;;;;33.01;20.14;100710.06;5551326;32;33961;-88
2022/07/19 14:22:07;;;;;;;4.15;1.90;;;;;;;33.16;20.32;100704.28;5551200;32;34392;-87
2022/07/19 14:25:10;;;;;;;1.85;1.75;;;;;;;33.20;19.84;100694.56;5543991;32;33929;-87
2022/07/19 14:28:12;;;;;;;6.07;2.08;;;;;;;33.34;19.83;100692.59;5548579;32;33901;-87
2022/07/19 14:31:15;;;;;;;2.33;1.98;;;;;;;33.03;20.27;100686.00;5548727;32;34569;-87
2022/07/19 14:34:20;;;;;;;2.10;1.90;;;;;;;33.02;19.71;100695.28;5549319;32;33881;-86
2022/07/19 14:37:39;;;;;;;2.00;1.70;;;;;;;32.34;20.31;100689.97;5534837;32;32943;-86
2022/07/19 14:40:42;;;;;;;4.65;1.70;;;;;;;32.86;19.93;100693.84;5548226;32;35230;-87
2022/07/19 14:43:45;;;;;;;2.87;2.03;;;;;;;32.99;20.06;100688.34;5549175;32;34467;-87
2022/07/19 14:46:47;;;;;;;2.95;2.03;;;;;;;32.57;20.12;100693.31;5545089;32;34432;-87
2022/07/19 14:49:50;;;;;;;2.65;1.67;;;;;;;32.64;20.47;100689.47;5535913;32;33649;-86
2022/07/19 14:52:53;;;;;;;2.15;1.77;;;;;;;32.62;20.10;100677.87;5539796;32;34160;-86
2022/07/19 14:55:55;;;;;;;4.22;1.98;;;;;;;32.95;20.42;100681.56;5532917;32;33253;-86
2022/07/19 14:58:58;;;;;;;8.23;1.70;;;;;;;32.89;20.23;100674.19;5534645;32;32857;-86
2022/07/19 15:02:01;;;;;;;2.62;1.70;;;;;;;32.82;20.67;100676.94;5535753;32;32499;-86
2022/07/19 15:05:05;;;;;;;2.72;1.58;;;;;;;33.00;20.67;100670.78;5536121;32;32809;-85
2022/07/19 15:08:10;;;;;;;3.22;1.90;;;;;;;32.84;20.46;100666.59;5539884;32;32855;-86
2022/07/19 15:11:13;;;;;;;3.83;2.05;;;;;;;32.67;20.17;100663.47;5561610;32;33843;-86
2022/07/19 15:14:15;;;;;;;2.28;1.92;;;;;;;32.70;20.51;100660.31;5538157;32;33900;-86
2022/07/19 15:17:18;;;;;;;3.65;1.90;;;;;;;32.97;20.08;100662.97;5530531;32;34044;-85
2022/07/19 15:20:24;;;;;;;1.87;1.77;;;;;;;32.66;21.44;100659.06;5551249;32;34333;-85
2022/07/19 15:23:43;;;;;;;2.97;1.90;;;;;;;32.93;20.84;100659.78;5526598;32;33163;-85
